createdAt,value
2022-08-26T00:02:11.271Z,10.98
2022-08-26T00:05:12.932Z,10.97
2022-08-26T00:08:15.325Z,11.08
2022-08-26T00:11:26.840Z,11.14
2022-08-26T00:14:30.946Z,11.15
2022-08-26T00:17:33.292Z,11.18
2022-08-26T00:20:34.993Z,11.18
2022-08-26T00:23:37.164Z,11.30
2022-08-26T00:26:39.323Z,11.29
2022-08-26T00:29:43.076Z,11.31
2022-08-26T00:32:46.365Z,11.18
2022-08-26T00:35:48.138Z,11.10
2022-08-26T00:38:49.849Z,11.13
2022-08-26T00:41:51.504Z,11.19
2022-08-26T00:44:53.634Z,11.25
2022-08-26T00:47:56.748Z,11.24
2022-08-26T00:50:59.226Z,11.26
2022-08-26T00:54:03.622Z,11.26
2022-08-26T00:57:08.611Z,11.39
2022-08-26T01:00:19.794Z,11.42
2022-08-26T01:03:22.747Z,11.37
2022-08-26T01:06:24.955Z,11.35
2022-08-26T01:09:27.532Z,11.37
2022-08-26T01:12:30.055Z,11.39
2022-08-26T01:15:35.532Z,11.35
2022-08-26T01:18:37.174Z,11.34
2022-08-26T01:21:41.479Z,11.29
2022-08-26T01:24:43.302Z,11.35
2022-08-26T01:27:44.876Z,11.35
2022-08-26T01:30:52.998Z,11.43
2022-08-26T01:33:57.677Z,11.41
2022-08-26T01:37:05.429Z,11.33
2022-08-26T01:40:08.315Z,11.25
2022-08-26T01:43:14.680Z,11.18
2022-08-26T01:46:16.336Z,11.21
2022-08-26T01:49:18.127Z,11.27
2022-08-26T01:52:21.414Z,11.29
2022-08-26T01:55:32.598Z,11.27
2022-08-26T01:58:37.008Z,11.26
2022-08-26T02:01:38.670Z,11.24
2022-08-26T02:04:41.736Z,11.22
2022-08-26T02:07:44.118Z,11.30
2022-08-26T02:10:45.745Z,11.42
2022-08-26T02:14:07.950Z,11.51
2022-08-26T02:17:10.518Z,11.65
2022-08-26T02:20:15.011Z,11.61
2022-08-26T02:23:17.013Z,11.56
2022-08-26T02:26:20.766Z,11.65
2022-08-26T02:29:25.116Z,11.76
2022-08-26T02:32:27.156Z,11.80
2022-08-26T02:35:28.754Z,11.75
2022-08-26T02:38:32.162Z,11.73
2022-08-26T02:41:33.992Z,11.90
2022-08-26T02:44:35.807Z,11.99
2022-08-26T02:47:37.506Z,11.89
2022-08-26T02:50:39.506Z,12.02
2022-08-26T02:53:41.172Z,12.07
2022-08-26T02:56:44.514Z,12.02
2022-08-26T02:59:46.122Z,11.98
2022-08-26T03:02:48.109Z,12.00
2022-08-26T03:05:51.318Z,11.99
2022-08-26T03:08:52.939Z,11.96
2022-08-26T03:11:55.580Z,12.01
2022-08-26T03:14:57.609Z,12.03
2022-08-26T03:17:59.970Z,12.05
2022-08-26T03:21:11.862Z,12.05
2022-08-26T03:24:13.725Z,12.04
2022-08-26T03:27:15.563Z,12.00
2022-08-26T03:30:37.933Z,11.98
2022-08-26T03:33:40.717Z,12.01
2022-08-26T03:36:42.278Z,12.00
2022-08-26T03:39:44.881Z,11.96
2022-08-26T03:42:46.446Z,12.02
2022-08-26T03:45:48.036Z,12.08
2022-08-26T03:48:49.610Z,12.11
2022-08-26T03:51:51.589Z,12.14
2022-08-26T03:54:53.384Z,11.90
2022-08-26T03:57:54.986Z,11.61
2022-08-26T04:00:56.905Z,11.54
2022-08-26T04:04:00.424Z,11.43
2022-08-26T04:07:02.346Z,11.34
2022-08-26T04:10:04.287Z,11.30
2022-08-26T04:13:06.471Z,11.28
2022-08-26T04:16:08.144Z,11.25
2022-08-26T04:19:12.748Z,11.20
2022-08-26T04:22:14.342Z,11.22
2022-08-26T04:25:25.580Z,11.26
2022-08-26T04:28:27.485Z,11.27
2022-08-26T04:31:29.148Z,11.30
2022-08-26T04:34:32.833Z,11.28
2022-08-26T04:37:35.214Z,11.33
2022-08-26T04:40:36.886Z,11.43
2022-08-26T04:43:41.990Z,11.51
2022-08-26T04:46:43.941Z,11.55
2022-08-26T04:49:45.758Z,11.53
2022-08-26T04:52:47.398Z,11.51
2022-08-26T04:55:49.227Z,11.48
2022-08-26T04:58:56.819Z,11.44
2022-08-26T05:01:59.689Z,11.41
2022-08-26T05:05:01.465Z,11.24
2022-08-26T05:08:03.167Z,10.97
2022-08-26T05:11:05.385Z,10.84
2022-08-26T05:14:07.438Z,10.79
2022-08-26T05:17:09.393Z,10.56
2022-08-26T05:20:16.430Z,10.45
2022-08-26T05:23:19.613Z,10.40
2022-08-26T05:26:23.045Z,10.40
2022-08-26T05:29:25.234Z,10.37
2022-08-26T05:32:27.506Z,10.44
2022-08-26T05:35:34.326Z,10.67
2022-08-26T05:38:35.882Z,10.97
2022-08-26T05:41:38.595Z,11.10
2022-08-26T05:44:55.653Z,11.22
2022-08-26T05:47:57.899Z,11.28
2022-08-26T05:51:02.096Z,11.38
2022-08-26T05:54:03.837Z,11.43
2022-08-26T05:57:05.618Z,11.54
2022-08-26T06:00:07.929Z,11.58
2022-08-26T06:03:13.794Z,11.59
2022-08-26T06:06:19.976Z,11.58
2022-08-26T06:09:22.423Z,11.55
2022-08-26T06:12:25.111Z,11.49
2022-08-26T06:15:31.800Z,11.59
2022-08-26T06:18:36.307Z,11.64
2022-08-26T06:21:39.341Z,11.69
2022-08-26T06:24:59.580Z,11.79
2022-08-26T06:28:01.630Z,11.88
2022-08-26T06:31:06.239Z,11.99
2022-08-26T06:34:10.739Z,12.09
2022-08-26T06:37:13.486Z,12.23
2022-08-26T06:40:15.708Z,12.31
2022-08-26T06:43:18.480Z,12.35
2022-08-26T06:46:21.708Z,12.29
2022-08-26T06:49:27.161Z,12.35
2022-08-26T06:52:29.265Z,12.47
2022-08-26T06:55:51.908Z,12.60
2022-08-26T06:58:53.879Z,12.89
2022-08-26T07:01:57.562Z,13.55
2022-08-26T07:05:04.934Z,13.83
2022-08-26T07:08:06.614Z,13.93
2022-08-26T07:11:08.854Z,13.82
2022-08-26T07:14:10.743Z,13.78
2022-08-26T07:17:14.008Z,13.77
2022-08-26T07:20:16.505Z,13.95
2022-08-26T07:23:18.936Z,14.50
2022-08-26T07:26:26.820Z,14.47
2022-08-26T07:29:30.418Z,14.06
2022-08-26T07:32:32.822Z,13.84
2022-08-26T07:35:34.586Z,13.98
2022-08-26T07:38:36.613Z,14.00
2022-08-26T07:41:38.223Z,14.01
2022-08-26T07:44:40.967Z,14.05
2022-08-26T07:47:42.821Z,14.00
2022-08-26T07:50:49.483Z,13.93
2022-08-26T07:53:53.195Z,14.01
2022-08-26T07:56:55.130Z,14.22
2022-08-26T07:59:58.057Z,14.25
2022-08-26T08:03:00.445Z,14.35
2022-08-26T08:06:02.070Z,14.37
2022-08-26T08:09:03.962Z,14.77
2022-08-26T08:12:06.736Z,15.09
2022-08-26T08:15:09.010Z,15.01
2022-08-26T08:18:15.825Z,15.02
2022-08-26T08:21:21.974Z,15.16
2022-08-26T08:24:25.347Z,15.32
2022-08-26T08:27:27.201Z,15.39
2022-08-26T08:30:29.131Z,15.55
2022-08-26T08:33:31.344Z,15.76
2022-08-26T08:36:35.912Z,15.84
2022-08-26T08:39:37.878Z,16.27
2022-08-26T08:42:59.298Z,16.23
2022-08-26T08:46:03.701Z,16.43
2022-08-26T08:49:05.984Z,16.51
2022-08-26T08:52:11.410Z,16.47
2022-08-26T08:55:17.373Z,16.25
2022-08-26T08:58:20.777Z,16.54
2022-08-26T09:01:25.649Z,16.59
2022-08-26T09:04:30.437Z,16.77
2022-08-26T09:07:38.797Z,16.79
2022-08-26T09:10:50.951Z,16.95
2022-08-26T09:13:53.461Z,17.03
2022-08-26T09:17:02.507Z,17.08
2022-08-26T09:20:04.378Z,17.13
2022-08-26T09:23:06.056Z,16.96
2022-08-26T09:26:29.092Z,17.18
2022-08-26T09:29:33.966Z,17.49
2022-08-26T09:32:36.359Z,17.48
2022-08-26T09:35:39.049Z,17.69
2022-08-26T09:38:41.476Z,17.72
2022-08-26T09:41:43.734Z,18.26
2022-08-26T09:44:55.945Z,18.27
2022-08-26T09:48:01.377Z,18.17
2022-08-26T09:51:07.081Z,18.06
2022-08-26T09:54:09.305Z,18.02
2022-08-26T09:57:16.702Z,18.20
2022-08-26T10:00:26.813Z,18.53
2022-08-26T10:03:33.066Z,18.27
2022-08-26T10:06:38.273Z,18.05
2022-08-26T10:09:40.610Z,18.06
2022-08-26T10:12:44.963Z,18.34
2022-08-26T10:15:52.516Z,18.44
2022-08-26T10:19:08.752Z,18.27
2022-08-26T10:22:12.504Z,18.00
2022-08-26T10:25:16.337Z,17.98
2022-08-26T10:28:20.763Z,18.35
2022-08-26T10:31:28.556Z,18.90
2022-08-26T10:34:31.473Z,18.86
2022-08-26T10:37:36.569Z,18.77
2022-08-26T10:40:44.348Z,18.97
2022-08-26T10:43:45.938Z,19.15
2022-08-26T10:46:54.443Z,19.42
2022-08-26T10:50:00.436Z,19.64
2022-08-26T10:53:08.677Z,19.86
2022-08-26T10:56:19.209Z,20.25
2022-08-26T10:59:20.924Z,20.02
2022-08-26T11:02:47.164Z,19.43
2022-08-26T11:06:09.148Z,19.53
2022-08-26T11:09:10.767Z,19.71
2022-08-26T11:12:31.096Z,19.41
2022-08-26T11:15:40.056Z,19.80
2022-08-26T11:18:42.636Z,19.91
2022-08-26T11:22:02.500Z,20.77
2022-08-26T11:25:06.558Z,21.59
2022-08-26T11:28:09.208Z,21.64
2022-08-26T11:31:12.873Z,21.81
2022-08-26T11:34:14.596Z,21.09
2022-08-26T11:37:16.367Z,20.91
2022-08-26T11:40:20.639Z,21.24
2022-08-26T11:43:23.986Z,21.62
2022-08-26T11:46:27.467Z,22.02
2022-08-26T11:49:29.600Z,22.53
2022-08-26T11:52:31.289Z,22.78
2022-08-26T11:55:34.973Z,23.24
2022-08-26T11:58:36.842Z,23.27
2022-08-26T12:01:40.289Z,22.15
2022-08-26T12:04:42.471Z,21.51
2022-08-26T12:07:44.503Z,21.94
2022-08-26T12:10:46.513Z,22.89
2022-08-26T12:14:15.524Z,23.42
2022-08-26T12:17:19.371Z,23.65
2022-08-26T12:20:31.080Z,22.44
2022-08-26T12:23:36.545Z,22.61
2022-08-26T12:26:43.416Z,23.23
2022-08-26T12:29:48.499Z,22.95
2022-08-26T12:32:58.787Z,22.22
2022-08-26T12:36:02.090Z,22.38
2022-08-26T12:39:08.477Z,22.87
2022-08-26T12:42:13.621Z,23.76
2022-08-26T12:45:15.276Z,25.05
2022-08-26T12:48:21.701Z,25.06
2022-08-26T12:51:27.160Z,24.51
2022-08-26T12:54:49.553Z,24.44
2022-08-26T12:58:10.112Z,24.13
2022-08-26T13:01:12.666Z,24.20
2022-08-26T13:04:33.491Z,24.84
2022-08-26T13:07:35.412Z,25.35
2022-08-26T13:10:37.987Z,25.27
2022-08-26T13:13:40.263Z,25.35
2022-08-26T13:16:41.949Z,24.86
2022-08-26T13:19:43.743Z,23.88
2022-08-26T13:22:45.345Z,23.40
2022-08-26T13:25:55.544Z,23.30
2022-08-26T13:29:01.716Z,22.88
2022-08-26T13:32:04.839Z,23.22
2022-08-26T13:35:06.737Z,23.13
2022-08-26T13:38:14.716Z,23.07
2022-08-26T13:41:34.665Z,22.66
2022-08-26T13:44:39.013Z,22.11
2022-08-26T13:47:41.170Z,22.23
2022-08-26T13:50:43.326Z,21.85
2022-08-26T13:53:45.042Z,21.21
2022-08-26T13:56:47.281Z,21.22
2022-08-26T13:59:50.054Z,21.05
2022-08-26T14:02:51.722Z,20.94
2022-08-26T14:05:58.584Z,20.88
2022-08-26T14:09:01.434Z,21.14
2022-08-26T14:12:03.320Z,21.35
2022-08-26T14:15:05.160Z,21.54
2022-08-26T14:18:08.703Z,21.41
2022-08-26T14:21:12.045Z,21.60
2022-08-26T14:24:13.857Z,21.41
2022-08-26T14:27:15.745Z,21.35
2022-08-26T14:30:17.561Z,20.98
2022-08-26T14:33:20.119Z,20.63
2022-08-26T14:36:34.088Z,20.32
2022-08-26T14:39:35.752Z,20.52
2022-08-26T14:42:37.324Z,20.51
2022-08-26T14:48:44.850Z,20.18
2022-08-26T14:51:46.679Z,20.15
2022-08-26T14:54:48.309Z,20.13
2022-08-26T14:57:56.974Z,19.93
2022-08-26T15:00:58.630Z,20.10
2022-08-26T15:04:05.841Z,19.96
2022-08-26T15:07:07.557Z,19.93
2022-08-26T15:10:11.404Z,19.89
2022-08-26T15:13:13.024Z,19.85
2022-08-26T15:16:14.885Z,19.85
2022-08-26T15:19:17.009Z,20.02
2022-08-26T15:22:18.705Z,20.27
2022-08-26T15:25:20.712Z,20.15
2022-08-26T15:28:23.110Z,20.13
2022-08-26T15:31:25.802Z,19.86
2022-08-26T15:34:27.570Z,19.73
2022-08-26T15:37:29.201Z,19.69
2022-08-26T15:40:30.986Z,19.70
2022-08-26T15:43:32.751Z,19.56
2022-08-26T15:46:34.746Z,19.55
2022-08-26T15:49:38.650Z,19.57
2022-08-26T15:52:40.294Z,19.73
2022-08-26T15:55:41.858Z,19.56
2022-08-26T15:58:43.513Z,19.49
2022-08-26T16:01:46.514Z,19.70
2022-08-26T16:04:48.312Z,19.50
2022-08-26T16:07:49.923Z,19.52
2022-08-26T16:10:51.596Z,19.44
2022-08-26T16:13:53.349Z,19.37
2022-08-26T16:16:54.950Z,19.32
2022-08-26T16:19:56.549Z,19.31
2022-08-26T16:22:58.427Z,19.16
2022-08-26T16:26:00.024Z,19.07
2022-08-26T16:29:02.658Z,19.00
2022-08-26T16:32:08.662Z,19.08
2022-08-26T16:35:10.277Z,19.17
2022-08-26T16:38:11.893Z,19.07
2022-08-26T16:41:13.539Z,19.00
2022-08-26T16:44:15.151Z,18.94
2022-08-26T16:47:17.994Z,19.04
2022-08-26T16:50:20.458Z,19.33
2022-08-26T16:53:22.166Z,19.39
2022-08-26T16:56:33.416Z,19.34
2022-08-26T16:59:36.091Z,19.57
2022-08-26T17:02:37.792Z,19.69
2022-08-26T17:05:40.324Z,20.35
2022-08-26T17:08:42.098Z,20.29
2022-08-26T17:11:43.915Z,19.92
2022-08-26T17:14:45.793Z,19.48
2022-08-26T17:17:47.477Z,19.11
2022-08-26T17:20:49.194Z,18.82
2022-08-26T17:23:51.991Z,18.64
2022-08-26T17:26:55.735Z,18.48
2022-08-26T17:29:57.529Z,18.80
2022-08-26T17:32:59.141Z,19.53
2022-08-26T17:36:01.565Z,19.83
2022-08-26T17:39:03.797Z,21.45
2022-08-26T17:42:05.596Z,22.69
2022-08-26T17:45:07.784Z,23.16
2022-08-26T17:48:10.587Z,23.28
2022-08-26T17:51:13.428Z,23.58
2022-08-26T17:54:15.298Z,21.83
2022-08-26T17:57:16.929Z,20.53
2022-08-26T18:00:21.554Z,19.69
2022-08-26T18:03:23.586Z,19.18
2022-08-26T18:06:25.619Z,18.70
2022-08-26T18:09:29.362Z,18.29
2022-08-26T18:12:31.606Z,17.96
2022-08-26T18:15:33.349Z,17.73
2022-08-26T18:18:35.366Z,17.59
2022-08-26T18:21:37.057Z,17.42
2022-08-26T18:24:38.699Z,17.33
2022-08-26T18:27:40.277Z,17.17
2022-08-26T18:30:42.451Z,17.01
2022-08-26T18:33:44.254Z,16.90
2022-08-26T18:36:45.969Z,16.83
2022-08-26T18:39:47.593Z,16.77
2022-08-26T18:42:54.104Z,16.70
2022-08-26T18:46:06.105Z,16.63
2022-08-26T18:49:08.385Z,16.55
2022-08-26T18:52:10.182Z,16.45
2022-08-26T18:55:12.905Z,16.38
2022-08-26T18:58:16.399Z,16.32
2022-08-26T19:01:18.589Z,16.30
2022-08-26T19:04:20.587Z,16.25
2022-08-26T19:07:22.506Z,16.22
2022-08-26T19:10:24.860Z,16.20
2022-08-26T19:13:27.032Z,16.18
2022-08-26T19:16:29.110Z,16.16
2022-08-26T19:19:31.700Z,16.09
2022-08-26T19:22:33.461Z,15.93
2022-08-26T19:25:42.105Z,15.83
2022-08-26T19:28:44.199Z,15.84
2022-08-26T19:31:46.420Z,15.89
2022-08-26T19:34:54.899Z,15.93
2022-08-26T19:37:57.178Z,15.91
2022-08-26T19:40:58.953Z,15.84
2022-08-26T19:44:05.472Z,15.76
2022-08-26T19:47:07.987Z,15.73
2022-08-26T19:50:11.554Z,15.71
2022-08-26T19:53:13.282Z,15.69
2022-08-26T19:56:15.329Z,15.71
2022-08-26T19:59:17.784Z,15.78
2022-08-26T20:02:19.703Z,15.81
2022-08-26T20:05:22.080Z,15.85
2022-08-26T20:08:23.714Z,15.85
2022-08-26T20:11:25.759Z,15.85
2022-08-26T20:14:27.488Z,15.85
2022-08-26T20:17:29.065Z,15.81
2022-08-26T20:20:49.341Z,15.83
2022-08-26T20:23:51.675Z,15.87
2022-08-26T20:26:53.411Z,15.89
2022-08-26T20:29:55.486Z,15.90
2022-08-26T20:32:57.467Z,15.88
2022-08-26T20:35:59.378Z,15.92
2022-08-26T20:39:01.123Z,16.00
2022-08-26T20:42:03.558Z,16.06
2022-08-26T20:45:06.907Z,16.06
2022-08-26T20:48:08.898Z,15.97
2022-08-26T20:51:10.821Z,15.83
2022-08-26T20:54:13.150Z,15.73
2022-08-26T20:57:14.776Z,15.62
2022-08-26T21:00:18.225Z,15.42
2022-08-26T21:03:21.682Z,15.27
2022-08-26T21:06:23.485Z,15.20
2022-08-26T21:09:25.818Z,15.11
2022-08-26T21:12:27.441Z,15.13
2022-08-26T21:15:29.680Z,15.19
2022-08-26T21:18:33.044Z,15.25
2022-08-26T21:21:34.872Z,15.27
2022-08-26T21:24:36.502Z,15.28
2022-08-26T21:27:38.294Z,15.32
2022-08-26T21:30:40.227Z,15.41
2022-08-26T21:33:42.012Z,15.46
2022-08-26T21:36:43.937Z,15.30
2022-08-26T21:39:45.505Z,15.16
2022-08-26T21:42:47.084Z,15.11
2022-08-26T21:45:49.645Z,15.20
2022-08-26T21:48:55.072Z,15.24
2022-08-26T21:51:56.634Z,15.20
2022-08-26T21:54:59.227Z,15.18
2022-08-26T21:58:01.049Z,15.15
2022-08-26T22:01:02.754Z,15.08
2022-08-26T22:04:06.874Z,15.01
2022-08-26T22:07:08.449Z,14.93
2022-08-26T22:10:10.289Z,14.84
2022-08-26T22:13:11.943Z,14.79
2022-08-26T22:16:29.524Z,14.76
2022-08-26T22:19:32.024Z,14.75
2022-08-26T22:22:35.820Z,14.74
2022-08-26T22:25:37.491Z,14.74
2022-08-26T22:28:39.417Z,14.72
2022-08-26T22:31:43.796Z,14.71
2022-08-26T22:34:45.992Z,14.75
2022-08-26T22:37:47.589Z,14.75
2022-08-26T22:40:51.001Z,14.78
2022-08-26T22:43:52.912Z,14.86
2022-08-26T22:46:54.506Z,14.86
2022-08-26T22:50:01.938Z,14.84
2022-08-26T22:53:04.352Z,14.79
2022-08-26T22:56:06.318Z,14.70
2022-08-26T22:59:10.265Z,14.67
2022-08-26T23:02:12.092Z,14.66
2022-08-26T23:05:14.551Z,14.67
2022-08-26T23:08:16.593Z,14.69
2022-08-26T23:11:19.171Z,14.72
2022-08-26T23:14:20.739Z,14.76
2022-08-26T23:17:22.299Z,14.69
2022-08-26T23:20:23.905Z,14.61
2022-08-26T23:23:27.568Z,14.53
2022-08-26T23:26:29.163Z,14.46
2022-08-26T23:29:30.725Z,14.42
2022-08-26T23:32:32.290Z,14.42
2022-08-26T23:35:33.841Z,14.45
2022-08-26T23:38:35.397Z,14.47
2022-08-26T23:41:38.397Z,14.50
2022-08-26T23:44:39.939Z,14.57
2022-08-26T23:47:41.507Z,14.60
2022-08-26T23:51:18.509Z,14.59
2022-08-26T23:54:20.137Z,14.52
2022-08-26T23:57:22.842Z,14.52
